Terminal Aerodrome Forecast
Issued by NWS

Home | Current Version | Previous Version | Text Only | Print | Product List | Glossary On
Versions: 1 2 3 4 5 6 7 8 9 10 11 12 13 14 15 16 17 18
000
FTUS43 KPAH 190500
TAFCGI
TAF
KCGI 190521Z 1906/2006 04004KT P6SM OVC011
      TEMPO 1909/1913 5SM BR SCT011 OVC020
     FM191300 05004KT P6SM OVC025
     FM191800 03003KT P6SM OVC050=

USA.gov is the U.S. government's official web portal to all federal, state and local government web resources and services.